Taylor Hill, Louisiana
Current Conditions -  °F | °C
As of 2:53 AM on Friday 19 Dec 2014 (Local Time) from KAEX Reporting Station
Haze Haze  
Wind Chill: 51°   Ceiling: 300
Heat Index: 51°   Visibility: 3mi
Dew Point: 51°   Wind: 3mph
Humidity: 100%   Direction: 110°ESE
Pressure: 30.09"   Gusts: NA
Location:  31.4254°N, 92.7765°W
Report Text: KAEX 190853Z AUTO 11003KT 3SM BR OVC003 11/11 A3009 RMK AO2 SLP193 T01060106 55014
Loading
Personal Weather Stations






























Interactive Weather Map New forecast layout! Learn more

10-Day Weather Forecast

Advertisements
Track Severe Weather on mobile